sensor_id;sensor_type;location;lat;lon;timestamp;temperature;humidity
55329;DHT22;41205;44.264;19.884;2023-04-03T00:01:33;307.30;2304.00
55329;DHT22;41205;44.264;19.884;2023-04-03T00:03:59;307.30;2304.00
55329;DHT22;41205;44.264;19.884;2023-04-03T00:06:25;307.30;2304.00
55329;DHT22;41205;44.264;19.884;2023-04-03T00:08:52;307.40;2304.00
55329;DHT22;41205;44.264;19.884;2023-04-03T00:11:18;307.30;2304.00
55329;DHT22;41205;44.264;19.884;2023-04-03T00:13:44;307.20;2304.00
55329;DHT22;41205;44.264;19.884;2023-04-03T00:16:11;307.20;2304.00
55329;DHT22;41205;44.264;19.884;2023-04-03T00:18:38;307.20;2304.00
55329;DHT22;41205;44.264;19.884;2023-04-03T00:21:04;282.50;2278.40
55329;DHT22;41205;44.264;19.884;2023-04-03T00:23:30;307.20;2304.00
55329;DHT22;41205;44.264;19.884;2023-04-03T00:25:56;307.20;2304.00
55329;DHT22;41205;44.264;19.884;2023-04-03T00:28:22;282.50;2278.40
55329;DHT22;41205;44.264;19.884;2023-04-03T00:30:51;307.20;2304.00
55329;DHT22;41205;44.264;19.884;2023-04-03T00:33:17;307.20;2304.00
55329;DHT22;41205;44.264;19.884;2023-04-03T00:35:47;307.20;2304.00
55329;DHT22;41205;44.264;19.884;2023-04-03T00:38:13;307.20;2304.00
55329;DHT22;41205;44.264;19.884;2023-04-03T00:40:44;307.30;2304.00
55329;DHT22;41205;44.264;19.884;2023-04-03T00:43:17;307.30;2304.00
55329;DHT22;41205;44.264;19.884;2023-04-03T00:45:48;307.30;2304.00
55329;DHT22;41205;44.264;19.884;2023-04-03T00:48:21;307.30;2304.00
55329;DHT22;41205;44.264;19.884;2023-04-03T00:50:48;307.30;2304.00
55329;DHT22;41205;44.264;19.884;2023-04-03T00:53:19;307.20;2304.00
55329;DHT22;41205;44.264;19.884;2023-04-03T00:55:48;307.20;2304.00
55329;DHT22;41205;44.264;19.884;2023-04-03T00:58:16;307.30;2304.00
55329;DHT22;41205;44.264;19.884;2023-04-03T01:00:48;307.30;2304.00
55329;DHT22;41205;44.264;19.884;2023-04-03T01:03:14;307.30;2304.00
55329;DHT22;41205;44.264;19.884;2023-04-03T01:05:40;307.30;2304.00
55329;DHT22;41205;44.264;19.884;2023-04-03T01:08:06;307.20;2304.00
55329;DHT22;41205;44.264;19.884;2023-04-03T01:10:32;307.20;2304.00
55329;DHT22;41205;44.264;19.884;2023-04-03T01:13:00;307.20;2304.00
55329;DHT22;41205;44.264;19.884;2023-04-03T01:15:27;307.20;2304.00
55329;DHT22;41205;44.264;19.884;2023-04-03T01:17:58;307.20;2304.00
55329;DHT22;41205;44.264;19.884;2023-04-03T01:25:47;307.20;2304.00
55329;DHT22;41205;44.264;19.884;2023-04-03T01:28:25;307.20;2304.00
55329;DHT22;41205;44.264;19.884;2023-04-03T01:31:16;307.20;2304.00
55329;DHT22;41205;44.264;19.884;2023-04-03T01:33:44;307.20;2304.00
55329;DHT22;41205;44.264;19.884;2023-04-03T01:36:15;282.50;2278.40
55329;DHT22;41205;44.264;19.884;2023-04-03T01:38:41;282.50;2278.40
55329;DHT22;41205;44.264;19.884;2023-04-03T01:41:07;282.40;2278.40
55329;DHT22;41205;44.264;19.884;2023-04-03T01:43:33;282.40;2278.40
55329;DHT22;41205;44.264;19.884;2023-04-03T01:45:58;282.30;2278.40
55329;DHT22;41205;44.264;19.884;2023-04-03T01:48:24;282.20;2278.40
55329;DHT22;41205;44.264;19.884;2023-04-03T01:50:50;282.30;2278.40
55329;DHT22;41205;44.264;19.884;2023-04-03T01:53:16;282.30;2278.40
55329;DHT22;41205;44.264;19.884;2023-04-03T01:55:41;282.20;2278.40
55329;DHT22;41205;44.264;19.884;2023-04-03T01:58:07;282.20;2278.40
55329;DHT22;41205;44.264;19.884;2023-04-03T02:00:33;282.10;2278.40
55329;DHT22;41205;44.264;19.884;2023-04-03T02:02:59;282.00;2278.40
55329;DHT22;41205;44.264;19.884;2023-04-03T02:05:24;281.80;2278.40
55329;DHT22;41205;44.264;19.884;2023-04-03T02:07:50;281.80;2278.40
55329;DHT22;41205;44.264;19.884;2023-04-03T02:10:16;281.60;2278.40
55329;DHT22;41205;44.264;19.884;2023-04-03T02:12:42;256.80;2252.80
55329;DHT22;41205;44.264;19.884;2023-04-03T02:15:08;256.60;2252.80
55329;DHT22;41205;44.264;19.884;2023-04-03T02:17:35;256.60;2252.80
55329;DHT22;41205;44.264;19.884;2023-04-03T02:20:01;256.60;2252.80
55329;DHT22;41205;44.264;19.884;2023-04-03T02:22:26;256.40;2252.80
55329;DHT22;41205;44.264;19.884;2023-04-03T02:24:52;256.30;2252.80
55329;DHT22;41205;44.264;19.884;2023-04-03T02:27:18;256.20;2252.80
55329;DHT22;41205;44.264;19.884;2023-04-03T02:29:43;256.00;2252.80
55329;DHT22;41205;44.264;19.884;2023-04-03T02:32:09;256.20;2252.80
55329;DHT22;41205;44.264;19.884;2023-04-03T02:34:35;231.30;2252.80
55329;DHT22;41205;44.264;19.884;2023-04-03T02:37:01;231.00;2252.80
55329;DHT22;41205;44.264;19.884;2023-04-03T02:39:26;231.00;2252.80
55329;DHT22;41205;44.264;19.884;2023-04-03T02:41:52;231.00;2252.80
55329;DHT22;41205;44.264;19.884;2023-04-03T02:44:19;230.90;2252.80
55329;DHT22;41205;44.264;19.884;2023-04-03T02:46:45;230.70;2252.80
55329;DHT22;41205;44.264;19.884;2023-04-03T02:49:11;230.70;2252.80
55329;DHT22;41205;44.264;19.884;2023-04-03T02:51:36;230.90;2252.80
55329;DHT22;41205;44.264;19.884;2023-04-03T02:54:02;230.70;2252.80
55329;DHT22;41205;44.264;19.884;2023-04-03T02:56:28;230.80;2252.80
55329;DHT22;41205;44.264;19.884;2023-04-03T02:58:53;230.90;2252.80
55329;DHT22;41205;44.264;19.884;2023-04-03T03:01:19;230.80;2252.80
55329;DHT22;41205;44.264;19.884;2023-04-03T03:03:45;230.70;2252.80
55329;DHT22;41205;44.264;19.884;2023-04-03T03:06:14;230.70;2252.80
55329;DHT22;41205;44.264;19.884;2023-04-03T03:08:40;230.60;2252.80
55329;DHT22;41205;44.264;19.884;2023-04-03T03:11:06;230.60;2252.80
55329;DHT22;41205;44.264;19.884;2023-04-03T03:13:32;230.60;2252.80
55329;DHT22;41205;44.264;19.884;2023-04-03T03:15:58;230.60;2252.80
55329;DHT22;41205;44.264;19.884;2023-04-03T03:18:24;230.70;2252.80
55329;DHT22;41205;44.264;19.884;2023-04-03T03:20:55;230.80;2252.80
55329;DHT22;41205;44.264;19.884;2023-04-03T03:23:23;230.90;2252.80
55329;DHT22;41205;44.264;19.884;2023-04-03T03:25:49;230.90;2252.80
55329;DHT22;41205;44.264;19.884;2023-04-03T03:28:14;230.90;2252.80
55329;DHT22;41205;44.264;19.884;2023-04-03T03:30:40;230.80;2252.80
55329;DHT22;41205;44.264;19.884;2023-04-03T03:33:06;231.00;2252.80
55329;DHT22;41205;44.264;19.884;2023-04-03T03:35:33;230.90;2252.80
55329;DHT22;41205;44.264;19.884;2023-04-03T03:37:59;230.90;2252.80
55329;DHT22;41205;44.264;19.884;2023-04-03T03:40:25;230.70;2252.80
55329;DHT22;41205;44.264;19.884;2023-04-03T03:42:50;230.70;2252.80
55329;DHT22;41205;44.264;19.884;2023-04-03T03:45:16;205.70;2252.80
55329;DHT22;41205;44.264;19.884;2023-04-03T03:47:42;205.60;2252.80
55329;DHT22;41205;44.264;19.884;2023-04-03T03:50:08;205.60;2252.80
55329;DHT22;41205;44.264;19.884;2023-04-03T03:52:34;205.60;2252.80
55329;DHT22;41205;44.264;19.884;2023-04-03T03:55:00;205.50;2252.80
55329;DHT22;41205;44.264;19.884;2023-04-03T03:57:26;205.50;2252.80
55329;DHT22;41205;44.264;19.884;2023-04-03T03:59:54;205.50;2252.80
55329;DHT22;41205;44.264;19.884;2023-04-03T04:02:20;205.30;2252.80
55329;DHT22;41205;44.264;19.884;2023-04-03T04:04:46;205.20;2252.80
55329;DHT22;41205;44.264;19.884;2023-04-03T04:07:12;205.20;2252.80
55329;DHT22;41205;44.264;19.884;2023-04-03T04:09:38;205.20;2252.80
55329;DHT22;41205;44.264;19.884;2023-04-03T04:12:03;205.20;2252.80
55329;DHT22;41205;44.264;19.884;2023-04-03T04:14:29;205.10;2252.80
55329;DHT22;41205;44.264;19.884;2023-04-03T04:16:55;205.10;2252.80
55329;DHT22;41205;44.264;19.884;2023-04-03T04:19:21;205.20;2252.80
55329;DHT22;41205;44.264;19.884;2023-04-03T04:21:46;205.10;2252.80
55329;DHT22;41205;44.264;19.884;2023-04-03T04:24:12;205.00;2252.80
55329;DHT22;41205;44.264;19.884;2023-04-03T04:26:38;204.80;2252.80
55329;DHT22;41205;44.264;19.884;2023-04-03T04:29:03;180.10;2252.80
55329;DHT22;41205;44.264;19.884;2023-04-03T04:31:29;180.10;2252.80
55329;DHT22;41205;44.264;19.884;2023-04-03T04:33:55;180.00;2252.80
55329;DHT22;41205;44.264;19.884;2023-04-03T04:36:20;180.00;2252.80
55329;DHT22;41205;44.264;19.884;2023-04-03T04:38:46;180.00;2252.80
55329;DHT22;41205;44.264;19.884;2023-04-03T04:41:12;179.90;2252.80
55329;DHT22;41205;44.264;19.884;2023-04-03T04:43:37;179.80;2252.80
55329;DHT22;41205;44.264;19.884;2023-04-03T04:46:08;179.90;2252.80
55329;DHT22;41205;44.264;19.884;2023-04-03T04:48:34;179.80;2252.80
55329;DHT22;41205;44.264;19.884;2023-04-03T04:51:01;179.80;2252.80
55329;DHT22;41205;44.264;19.884;2023-04-03T04:53:26;179.90;2252.80
55329;DHT22;41205;44.264;19.884;2023-04-03T04:55:53;179.90;2252.80
55329;DHT22;41205;44.264;19.884;2023-04-03T04:58:19;179.90;2252.80
55329;DHT22;41205;44.264;19.884;2023-04-03T05:00:46;179.90;2252.80
55329;DHT22;41205;44.264;19.884;2023-04-03T05:03:11;179.80;2252.80
55329;DHT22;41205;44.264;19.884;2023-04-03T05:05:37;179.70;2252.80
55329;DHT22;41205;44.264;19.884;2023-04-03T05:08:03;179.70;2252.80
55329;DHT22;41205;44.264;19.884;2023-04-03T05:10:30;179.70;2252.80
55329;DHT22;41205;44.264;19.884;2023-04-03T05:12:56;179.70;2252.80
55329;DHT22;41205;44.264;19.884;2023-04-03T05:15:22;179.80;2252.80
55329;DHT22;41205;44.264;19.884;2023-04-03T05:17:48;179.70;2252.80
55329;DHT22;41205;44.264;19.884;2023-04-03T05:20:13;179.80;2252.80
55329;DHT22;41205;44.264;19.884;2023-04-03T05:22:39;179.80;2252.80
55329;DHT22;41205;44.264;19.884;2023-04-03T05:25:05;179.70;2252.80
55329;DHT22;41205;44.264;19.884;2023-04-03T05:27:31;179.60;2252.80
55329;DHT22;41205;44.264;19.884;2023-04-03T05:29:57;179.60;2252.80
55329;DHT22;41205;44.264;19.884;2023-04-03T05:32:23;179.60;2252.80
55329;DHT22;41205;44.264;19.884;2023-04-03T05:34:50;179.40;2252.80
55329;DHT22;41205;44.264;19.884;2023-04-03T05:37:17;179.40;2252.80
55329;DHT22;41205;44.264;19.884;2023-04-03T05:39:43;179.50;2252.80
55329;DHT22;41205;44.264;19.884;2023-04-03T05:42:08;179.40;2252.80
55329;DHT22;41205;44.264;19.884;2023-04-03T05:44:37;179.40;2252.80
55329;DHT22;41205;44.264;19.884;2023-04-03T05:47:03;179.40;2252.80
55329;DHT22;41205;44.264;19.884;2023-04-03T05:49:28;179.40;2252.80
55329;DHT22;41205;44.264;19.884;2023-04-03T05:51:54;179.40;2252.80
55329;DHT22;41205;44.264;19.884;2023-04-03T05:54:28;179.40;2252.80
55329;DHT22;41205;44.264;19.884;2023-04-03T05:56:54;179.40;2252.80
55329;DHT22;41205;44.264;19.884;2023-04-03T05:59:20;179.30;2252.80
55329;DHT22;41205;44.264;19.884;2023-04-03T06:01:47;179.30;2252.80
55329;DHT22;41205;44.264;19.884;2023-04-03T06:04:13;154.40;2252.80
55329;DHT22;41205;44.264;19.884;2023-04-03T06:06:50;154.40;2252.80
55329;DHT22;41205;44.264;19.884;2023-04-03T06:09:21;154.50;2252.80
55329;DHT22;41205;44.264;19.884;2023-04-03T06:11:47;154.40;2252.80
55329;DHT22;41205;44.264;19.884;2023-04-03T06:14:13;154.40;2252.80
55329;DHT22;41205;44.264;19.884;2023-04-03T06:16:39;154.30;2252.80
55329;DHT22;41205;44.264;19.884;2023-04-03T06:19:06;154.10;2252.80
55329;DHT22;41205;44.264;19.884;2023-04-03T06:21:33;154.10;2252.80
55329;DHT22;41205;44.264;19.884;2023-04-03T06:23:59;154.20;2252.80
55329;DHT22;41205;44.264;19.884;2023-04-03T06:26:24;154.10;2252.80
55329;DHT22;41205;44.264;19.884;2023-04-03T06:28:50;154.10;2252.80
55329;DHT22;41205;44.264;19.884;2023-04-03T06:31:16;154.20;2252.80
55329;DHT22;41205;44.264;19.884;2023-04-03T06:33:42;154.20;2252.80
55329;DHT22;41205;44.264;19.884;2023-04-03T06:36:10;154.10;2252.80
55329;DHT22;41205;44.264;19.884;2023-04-03T06:38:37;154.20;2252.80
55329;DHT22;41205;44.264;19.884;2023-04-03T06:41:02;154.30;2252.80
55329;DHT22;41205;44.264;19.884;2023-04-03T06:43:28;154.40;2252.80
55329;DHT22;41205;44.264;19.884;2023-04-03T06:45:56;154.30;2252.80
55329;DHT22;41205;44.264;19.884;2023-04-03T06:48:22;154.20;2252.80
55329;DHT22;41205;44.264;19.884;2023-04-03T06:50:48;154.20;2252.80
55329;DHT22;41205;44.264;19.884;2023-04-03T06:53:14;154.20;2252.80
55329;DHT22;41205;44.264;19.884;2023-04-03T06:55:40;154.20;2252.80
55329;DHT22;41205;44.264;19.884;2023-04-03T06:58:07;154.30;2252.80
55329;DHT22;41205;44.264;19.884;2023-04-03T07:00:33;154.30;2252.80
55329;DHT22;41205;44.264;19.884;2023-04-03T07:02:59;154.20;2252.80
55329;DHT22;41205;44.264;19.884;2023-04-03T07:05:25;154.20;2252.80
55329;DHT22;41205;44.264;19.884;2023-04-03T07:07:51;154.10;2252.80
55329;DHT22;41205;44.264;19.884;2023-04-03T07:10:18;154.10;2252.80
55329;DHT22;41205;44.264;19.884;2023-04-03T07:12:44;154.20;2252.80
55329;DHT22;41205;44.264;19.884;2023-04-03T07:15:10;154.20;2252.80
55329;DHT22;41205;44.264;19.884;2023-04-03T07:17:37;154.30;2252.80
55329;DHT22;41205;44.264;19.884;2023-04-03T07:20:03;154.30;2252.80
55329;DHT22;41205;44.264;19.884;2023-04-03T07:22:29;154.30;2252.80
55329;DHT22;41205;44.264;19.884;2023-04-03T07:24:55;154.20;2252.80
55329;DHT22;41205;44.264;19.884;2023-04-03T07:27:21;154.30;2252.80
55329;DHT22;41205;44.264;19.884;2023-04-03T07:29:46;154.40;2252.80
55329;DHT22;41205;44.264;19.884;2023-04-03T07:32:14;154.30;2252.80
55329;DHT22;41205;44.264;19.884;2023-04-03T07:34:40;154.30;2252.80
55329;DHT22;41205;44.264;19.884;2023-04-03T07:37:06;154.30;2252.80
55329;DHT22;41205;44.264;19.884;2023-04-03T07:39:32;154.40;2252.80
55329;DHT22;41205;44.264;19.884;2023-04-03T07:41:58;154.50;2252.80
55329;DHT22;41205;44.264;19.884;2023-04-03T07:44:24;154.40;2252.80
55329;DHT22;41205;44.264;19.884;2023-04-03T07:46:50;154.40;2252.80
55329;DHT22;41205;44.264;19.884;2023-04-03T07:49:17;154.30;2252.80
55329;DHT22;41205;44.264;19.884;2023-04-03T07:51:48;154.40;2252.80
55329;DHT22;41205;44.264;19.884;2023-04-03T07:54:14;154.40;2252.80
55329;DHT22;41205;44.264;19.884;2023-04-03T07:56:40;154.40;2252.80
55329;DHT22;41205;44.264;19.884;2023-04-03T07:59:08;154.40;2252.80
55329;DHT22;41205;44.264;19.884;2023-04-03T08:01:34;154.20;2252.80
55329;DHT22;41205;44.264;19.884;2023-04-03T08:04:00;154.10;2252.80
55329;DHT22;41205;44.264;19.884;2023-04-03T08:06:26;154.00;2252.80
55329;DHT22;41205;44.264;19.884;2023-04-03T08:08:52;154.00;2252.80
55329;DHT22;41205;44.264;19.884;2023-04-03T08:11:18;153.80;2252.80
55329;DHT22;41205;44.264;19.884;2023-04-03T08:13:44;153.80;2252.80
55329;DHT22;41205;44.264;19.884;2023-04-03T08:16:12;153.80;2252.80
55329;DHT22;41205;44.264;19.884;2023-04-03T08:18:39;153.80;2252.80
55329;DHT22;41205;44.264;19.884;2023-04-03T08:21:11;153.90;2252.80
55329;DHT22;41205;44.264;19.884;2023-04-03T08:23:38;154.10;2252.80
55329;DHT22;41205;44.264;19.884;2023-04-03T08:26:12;154.20;2252.80
55329;DHT22;41205;44.264;19.884;2023-04-03T08:28:38;154.10;2252.80
55329;DHT22;41205;44.264;19.884;2023-04-03T08:31:06;154.10;2252.80
55329;DHT22;41205;44.264;19.884;2023-04-03T08:33:33;154.10;2252.80
55329;DHT22;41205;44.264;19.884;2023-04-03T08:36:01;154.00;2252.80
55329;DHT22;41205;44.264;19.884;2023-04-03T08:38:27;154.00;2252.80
55329;DHT22;41205;44.264;19.884;2023-04-03T08:41:15;154.10;2252.80
55329;DHT22;41205;44.264;19.884;2023-04-03T08:46:10;154.10;2252.80
55329;DHT22;41205;44.264;19.884;2023-04-03T08:48:41;154.10;2252.80
55329;DHT22;41205;44.264;19.884;2023-04-03T08:51:16;154.20;2252.80
55329;DHT22;41205;44.264;19.884;2023-04-03T08:54:04;154.20;2252.80
55329;DHT22;41205;44.264;19.884;2023-04-03T08:56:33;154.20;2252.80
55329;DHT22;41205;44.264;19.884;2023-04-03T08:59:05;154.20;2252.80
55329;DHT22;41205;44.264;19.884;2023-04-03T09:01:38;154.10;2252.80
55329;DHT22;41205;44.264;19.884;2023-04-03T09:04:11;154.20;2252.80
55329;DHT22;41205;44.264;19.884;2023-04-03T09:06:38;154.30;2252.80
55329;DHT22;41205;44.264;19.884;2023-04-03T09:09:11;154.50;2252.80
55329;DHT22;41205;44.264;19.884;2023-04-03T09:20:25;179.20;2252.80
55329;DHT22;41205;44.264;19.884;2023-04-03T09:22:53;154.50;2252.80
55329;DHT22;41205;44.264;19.884;2023-04-03T09:25:27;154.50;2252.80
55329;DHT22;41205;44.264;19.884;2023-04-03T09:27:55;154.50;2252.80
55329;DHT22;41205;44.264;19.884;2023-04-03T09:30:24;179.20;2252.80
55329;DHT22;41205;44.264;19.884;2023-04-03T09:32:56;154.50;2252.80
55329;DHT22;41205;44.264;19.884;2023-04-03T09:38:17;154.50;2252.80
55329;DHT22;41205;44.264;19.884;2023-04-03T09:40:48;179.20;2252.80
55329;DHT22;41205;44.264;19.884;2023-04-03T09:43:51;154.50;2252.80
55329;DHT22;41205;44.264;19.884;2023-04-03T09:46:29;179.30;2252.80
55329;DHT22;41205;44.264;19.884;2023-04-03T09:49:04;179.40;2252.80
55329;DHT22;41205;44.264;19.884;2023-04-03T09:51:30;179.40;2252.80
55329;DHT22;41205;44.264;19.884;2023-04-03T09:53:57;179.40;2252.80
55329;DHT22;41205;44.264;19.884;2023-04-03T09:56:28;179.40;2252.80
55329;DHT22;41205;44.264;19.884;2023-04-03T10:01:36;179.30;2252.80
55329;DHT22;41205;44.264;19.884;2023-04-03T10:06:33;179.50;2252.80
55329;DHT22;41205;44.264;19.884;2023-04-03T10:09:14;179.40;2252.80
55329;DHT22;41205;44.264;19.884;2023-04-03T10:14:35;154.40;2252.80
55329;DHT22;41205;44.264;19.884;2023-04-03T10:19:50;179.30;2252.80
55329;DHT22;41205;44.264;19.884;2023-04-03T10:27:38;179.40;2252.80
55329;DHT22;41205;44.264;19.884;2023-04-03T10:41:42;179.60;2252.80
55329;DHT22;41205;44.264;19.884;2023-04-03T10:47:21;180.00;2252.80
55329;DHT22;41205;44.264;19.884;2023-04-03T10:52:47;204.90;2252.80
55329;DHT22;41205;44.264;19.884;2023-04-03T10:57:59;205.10;2252.80
55329;DHT22;41205;44.264;19.884;2023-04-03T11:00:40;205.10;2252.80
55329;DHT22;41205;44.264;19.884;2023-04-03T11:03:14;205.10;2252.80
55329;DHT22;41205;44.264;19.884;2023-04-03T11:05:42;205.20;2252.80
55329;DHT22;41205;44.264;19.884;2023-04-03T11:11:09;205.00;2252.80
55329;DHT22;41205;44.264;19.884;2023-04-03T11:13:41;205.10;2252.80
55329;DHT22;41205;44.264;19.884;2023-04-03T11:16:08;205.40;2252.80
55329;DHT22;41205;44.264;19.884;2023-04-03T11:21:39;205.20;2252.80
55329;DHT22;41205;44.264;19.884;2023-04-03T11:24:31;205.20;2252.80
55329;DHT22;41205;44.264;19.884;2023-04-03T11:26:58;205.30;2252.80
55329;DHT22;41205;44.264;19.884;2023-04-03T11:29:34;205.30;2252.80
55329;DHT22;41205;44.264;19.884;2023-04-03T11:32:05;205.10;2252.80
55329;DHT22;41205;44.264;19.884;2023-04-03T11:34:39;205.10;2252.80
55329;DHT22;41205;44.264;19.884;2023-04-03T11:37:39;204.90;2252.80
55329;DHT22;41205;44.264;19.884;2023-04-03T11:42:42;205.00;2252.80
55329;DHT22;41205;44.264;19.884;2023-04-03T11:47:57;204.80;2252.80
55329;DHT22;41205;44.264;19.884;2023-04-03T11:50:39;204.80;2252.80
55329;DHT22;41205;44.264;19.884;2023-04-03T12:00:55;204.90;2252.80
55329;DHT22;41205;44.264;19.884;2023-04-03T12:08:44;204.90;2252.80
55329;DHT22;41205;44.264;19.884;2023-04-03T12:27:03;180.10;2252.80
55329;DHT22;41205;44.264;19.884;2023-04-03T12:29:36;204.80;2252.80
55329;DHT22;41205;44.264;19.884;2023-04-03T12:43:11;179.90;2252.80
55329;DHT22;41205;44.264;19.884;2023-04-03T12:48:20;180.00;2252.80
55329;DHT22;41205;44.264;19.884;2023-04-03T12:50:49;180.00;2252.80
55329;DHT22;41205;44.264;19.884;2023-04-03T12:55:56;179.90;2252.80
55329;DHT22;41205;44.264;19.884;2023-04-03T12:58:24;179.80;2252.80
55329;DHT22;41205;44.264;19.884;2023-04-03T13:01:13;180.00;2252.80
55329;DHT22;41205;44.264;19.884;2023-04-03T13:03:45;180.10;2252.80
55329;DHT22;41205;44.264;19.884;2023-04-03T13:06:21;180.00;2252.80
55329;DHT22;41205;44.264;19.884;2023-04-03T13:08:49;179.90;2252.80
55329;DHT22;41205;44.264;19.884;2023-04-03T13:11:15;179.90;2252.80
55329;DHT22;41205;44.264;19.884;2023-04-03T13:13:55;179.80;2252.80
55329;DHT22;41205;44.264;19.884;2023-04-03T13:16:21;179.80;2252.80
55329;DHT22;41205;44.264;19.884;2023-04-03T13:18:51;179.80;2252.80
55329;DHT22;41205;44.264;19.884;2023-04-03T13:21:21;179.80;2252.80
55329;DHT22;41205;44.264;19.884;2023-04-03T13:23:51;179.90;2252.80
55329;DHT22;41205;44.264;19.884;2023-04-03T13:26:19;179.80;2252.80
55329;DHT22;41205;44.264;19.884;2023-04-03T13:28:47;179.80;2252.80
55329;DHT22;41205;44.264;19.884;2023-04-03T13:36:27;180.00;2252.80
55329;DHT22;41205;44.264;19.884;2023-04-03T13:41:46;179.80;2252.80
55329;DHT22;41205;44.264;19.884;2023-04-03T13:45:05;179.70;2252.80
55329;DHT22;41205;44.264;19.884;2023-04-03T13:47:21;179.70;2252.80
55329;DHT22;41205;44.264;19.884;2023-04-03T13:50:01;179.50;2252.80
55329;DHT22;41205;44.264;19.884;2023-04-03T13:52:31;179.50;2252.80
55329;DHT22;41205;44.264;19.884;2023-04-03T13:57:59;179.80;2252.80
55329;DHT22;41205;44.264;19.884;2023-04-03T14:02:55;180.00;2252.80
55329;DHT22;41205;44.264;19.884;2023-04-03T14:05:22;179.90;2252.80
55329;DHT22;41205;44.264;19.884;2023-04-03T14:07:50;179.80;2252.80
55329;DHT22;41205;44.264;19.884;2023-04-03T14:10:17;179.70;2252.80
55329;DHT22;41205;44.264;19.884;2023-04-03T14:12:43;179.90;2252.80
55329;DHT22;41205;44.264;19.884;2023-04-03T14:15:23;179.80;2252.80
55329;DHT22;41205;44.264;19.884;2023-04-03T14:17:50;179.70;2252.80
55329;DHT22;41205;44.264;19.884;2023-04-03T14:20:20;179.80;2252.80
55329;DHT22;41205;44.264;19.884;2023-04-03T14:22:47;179.70;2252.80
55329;DHT22;41205;44.264;19.884;2023-04-03T14:25:15;179.60;2252.80
55329;DHT22;41205;44.264;19.884;2023-04-03T14:27:46;179.50;2252.80
55329;DHT22;41205;44.264;19.884;2023-04-03T14:30:22;179.60;2252.80
55329;DHT22;41205;44.264;19.884;2023-04-03T14:32:48;179.50;2252.80
55329;DHT22;41205;44.264;19.884;2023-04-03T14:35:15;179.60;2252.80
55329;DHT22;41205;44.264;19.884;2023-04-03T14:37:41;179.70;2252.80
55329;DHT22;41205;44.264;19.884;2023-04-03T14:40:08;179.70;2252.80
55329;DHT22;41205;44.264;19.884;2023-04-03T14:42:37;179.70;2252.80
55329;DHT22;41205;44.264;19.884;2023-04-03T14:45:09;179.70;2252.80
55329;DHT22;41205;44.264;19.884;2023-04-03T14:47:44;179.70;2252.80
55329;DHT22;41205;44.264;19.884;2023-04-03T14:50:15;179.70;2252.80
55329;DHT22;41205;44.264;19.884;2023-04-03T14:52:42;179.80;2252.80
55329;DHT22;41205;44.264;19.884;2023-04-03T14:55:08;179.70;2252.80
55329;DHT22;41205;44.264;19.884;2023-04-03T14:57:34;179.80;2252.80
55329;DHT22;41205;44.264;19.884;2023-04-03T15:00:01;179.70;2252.80
55329;DHT22;41205;44.264;19.884;2023-04-03T15:02:36;179.70;2252.80
55329;DHT22;41205;44.264;19.884;2023-04-03T15:05:04;179.60;2252.80
55329;DHT22;41205;44.264;19.884;2023-04-03T15:07:34;179.70;2252.80
55329;DHT22;41205;44.264;19.884;2023-04-03T15:10:14;179.70;2252.80
55329;DHT22;41205;44.264;19.884;2023-04-03T15:12:41;179.70;2252.80
55329;DHT22;41205;44.264;19.884;2023-04-03T15:15:07;179.70;2252.80
55329;DHT22;41205;44.264;19.884;2023-04-03T15:17:34;179.70;2252.80
55329;DHT22;41205;44.264;19.884;2023-04-03T15:20:00;179.70;2252.80
55329;DHT22;41205;44.264;19.884;2023-04-03T15:22:26;179.70;2252.80
55329;DHT22;41205;44.264;19.884;2023-04-03T15:24:52;179.70;2252.80
55329;DHT22;41205;44.264;19.884;2023-04-03T15:27:18;179.70;2252.80
55329;DHT22;41205;44.264;19.884;2023-04-03T15:29:44;179.70;2252.80
55329;DHT22;41205;44.264;19.884;2023-04-03T15:32:11;179.80;2252.80
55329;DHT22;41205;44.264;19.884;2023-04-03T15:34:38;179.80;2252.80
55329;DHT22;41205;44.264;19.884;2023-04-03T15:37:04;179.90;2252.80
55329;DHT22;41205;44.264;19.884;2023-04-03T15:39:30;179.90;2252.80
55329;DHT22;41205;44.264;19.884;2023-04-03T15:41:56;179.90;2252.80
55329;DHT22;41205;44.264;19.884;2023-04-03T15:44:25;179.80;2252.80
55329;DHT22;41205;44.264;19.884;2023-04-03T15:46:50;179.80;2252.80
55329;DHT22;41205;44.264;19.884;2023-04-03T15:49:18;179.70;2252.80
55329;DHT22;41205;44.264;19.884;2023-04-03T15:51:45;179.70;2252.80
55329;DHT22;41205;44.264;19.884;2023-04-03T15:54:11;179.70;2252.80
55329;DHT22;41205;44.264;19.884;2023-04-03T15:56:36;179.70;2252.80
55329;DHT22;41205;44.264;19.884;2023-04-03T15:59:02;179.70;2252.80
55329;DHT22;41205;44.264;19.884;2023-04-03T16:01:28;179.80;2252.80
55329;DHT22;41205;44.264;19.884;2023-04-03T16:03:54;179.80;2252.80
55329;DHT22;41205;44.264;19.884;2023-04-03T16:06:21;179.90;2252.80
55329;DHT22;41205;44.264;19.884;2023-04-03T16:08:48;179.80;2252.80
55329;DHT22;41205;44.264;19.884;2023-04-03T16:11:14;179.70;2252.80
55329;DHT22;41205;44.264;19.884;2023-04-03T16:13:40;179.70;2252.80
55329;DHT22;41205;44.264;19.884;2023-04-03T16:16:06;179.60;2252.80
55329;DHT22;41205;44.264;19.884;2023-04-03T16:18:34;179.50;2252.80
55329;DHT22;41205;44.264;19.884;2023-04-03T16:21:00;179.40;2252.80
55329;DHT22;41205;44.264;19.884;2023-04-03T16:23:26;179.50;2252.80
55329;DHT22;41205;44.264;19.884;2023-04-03T16:25:52;179.50;2252.80
55329;DHT22;41205;44.264;19.884;2023-04-03T16:28:18;179.50;2252.80
55329;DHT22;41205;44.264;19.884;2023-04-03T16:30:45;179.50;2252.80
55329;DHT22;41205;44.264;19.884;2023-04-03T16:33:12;179.50;2252.80
55329;DHT22;41205;44.264;19.884;2023-04-03T16:35:38;179.50;2252.80
55329;DHT22;41205;44.264;19.884;2023-04-03T16:38:04;179.40;2252.80
55329;DHT22;41205;44.264;19.884;2023-04-03T16:40:31;179.40;2252.80
55329;DHT22;41205;44.264;19.884;2023-04-03T16:42:59;179.70;2252.80
55329;DHT22;41205;44.264;19.884;2023-04-03T16:45:25;179.90;1945.60
55329;DHT22;41205;44.264;19.884;2023-04-03T16:47:50;179.80;2252.80